createdAt,value
2022-12-01T00:00:50.877Z,1021.25
2022-12-01T00:01:51.000Z,1021.24
2022-12-01T00:02:50.939Z,1021.24
2022-12-01T00:03:50.888Z,1021.24
2022-12-01T00:04:50.745Z,1021.23
2022-12-01T00:05:50.776Z,1021.24
2022-12-01T00:06:50.716Z,1021.24
2022-12-01T00:07:50.826Z,1021.27
2022-12-01T00:08:50.720Z,1021.24
2022-12-01T00:09:50.877Z,1021.25
2022-12-01T00:10:50.623Z,1021.25
2022-12-01T00:11:50.720Z,1021.24
2022-12-01T00:12:50.632Z,1021.23
2022-12-01T00:13:50.764Z,1021.22
2022-12-01T00:14:50.668Z,1021.20
2022-12-01T00:15:50.813Z,1021.19
2022-12-01T00:16:50.640Z,1021.19
2022-12-01T00:17:50.631Z,1021.19
2022-12-01T00:18:50.539Z,1021.20
2022-12-01T00:19:50.875Z,1021.20
2022-12-01T00:20:50.635Z,1021.20
2022-12-01T00:21:50.872Z,1021.21
2022-12-01T00:22:50.591Z,1021.23
2022-12-01T00:23:50.510Z,1021.20
2022-12-01T00:24:50.507Z,1021.20
2022-12-01T00:25:50.473Z,1021.20
2022-12-01T00:26:50.581Z,1021.20
2022-12-01T00:27:50.514Z,1021.19
2022-12-01T00:28:50.512Z,1021.19
2022-12-01T00:29:50.627Z,1021.19
2022-12-01T00:30:50.608Z,1021.19
2022-12-01T00:31:50.476Z,1021.17
2022-12-01T00:32:50.355Z,1021.16
2022-12-01T00:33:50.498Z,1021.18
2022-12-01T00:34:50.453Z,1021.18
2022-12-01T00:35:50.453Z,1021.17
2022-12-01T00:36:50.430Z,1021.17
2022-12-01T00:37:50.409Z,1021.18
2022-12-01T00:38:50.420Z,1021.17
2022-12-01T00:39:50.753Z,1021.17
2022-12-01T00:40:50.407Z,1021.18
2022-12-01T00:41:50.427Z,1021.17
2022-12-01T00:42:50.326Z,1021.17
2022-12-01T00:43:50.438Z,1021.17
2022-12-01T00:44:50.360Z,1021.18
2022-12-01T00:45:50.408Z,1021.18
2022-12-01T00:46:50.305Z,1021.19
2022-12-01T00:47:50.370Z,1021.19
2022-12-01T00:48:50.339Z,1021.20
2022-12-01T00:49:50.412Z,1021.20
2022-12-01T00:50:50.293Z,1021.21
2022-12-01T00:51:50.237Z,1021.19
2022-12-01T00:52:50.192Z,1021.21
2022-12-01T00:53:50.380Z,1021.21
2022-12-01T00:54:50.261Z,1021.21
2022-12-01T00:55:50.284Z,1021.21
2022-12-01T00:56:50.384Z,1021.20
2022-12-01T00:57:50.149Z,1021.22
2022-12-01T00:58:50.234Z,1021.22
2022-12-01T00:59:50.409Z,1021.27
2022-12-01T01:00:50.249Z,1021.27
2022-12-01T01:01:50.235Z,1021.25
2022-12-01T01:02:50.183Z,1021.25
2022-12-01T01:03:50.158Z,1021.26
2022-12-01T01:04:50.084Z,1021.26
2022-12-01T01:05:50.081Z,1021.27
2022-12-01T01:06:50.150Z,1021.28
2022-12-01T01:07:50.030Z,1021.30
2022-12-01T01:08:50.125Z,1021.29
2022-12-01T01:09:50.328Z,1021.31
2022-12-01T01:10:50.103Z,1021.33
2022-12-01T01:11:49.966Z,1021.32
2022-12-01T01:12:50.165Z,1021.33
2022-12-01T01:13:49.997Z,1021.33
2022-12-01T01:14:50.041Z,1021.34
2022-12-01T01:15:49.955Z,1021.33
2022-12-01T01:16:50.059Z,1021.33
2022-12-01T01:17:50.042Z,1021.32
2022-12-01T01:18:49.947Z,1021.33
2022-12-01T01:19:50.217Z,1021.34
2022-12-01T01:20:49.950Z,1021.33
2022-12-01T01:21:50.002Z,1021.34
2022-12-01T01:22:50.064Z,1021.35
2022-12-01T01:23:49.962Z,1021.34
2022-12-01T01:24:49.901Z,1021.33
2022-12-01T01:25:49.841Z,1021.34
2022-12-01T01:26:49.955Z,1021.34
2022-12-01T01:27:50.012Z,1021.35
2022-12-01T01:28:49.848Z,1021.35
2022-12-01T01:29:50.125Z,1021.37
2022-12-01T01:30:50.139Z,1021.38
2022-12-01T01:31:49.850Z,1021.41
2022-12-01T01:32:49.836Z,1021.39
2022-12-01T01:33:49.862Z,1021.41
2022-12-01T01:34:49.847Z,1021.41
2022-12-01T01:35:49.771Z,1021.42
2022-12-01T01:36:49.811Z,1021.43
2022-12-01T01:37:49.772Z,1021.42
2022-12-01T01:38:49.743Z,1021.42
2022-12-01T01:39:49.848Z,1021.44
2022-12-01T01:40:49.836Z,1021.43
2022-12-01T01:41:49.844Z,1021.43
2022-12-01T01:42:49.674Z,1021.43
2022-12-01T01:43:49.772Z,1021.43
2022-12-01T01:44:49.932Z,1021.44
2022-12-01T01:45:49.858Z,1021.46
2022-12-01T01:46:49.738Z,1021.47
2022-12-01T01:47:49.647Z,1021.47
2022-12-01T01:48:49.676Z,1021.50
2022-12-01T01:49:49.932Z,1021.49
2022-12-01T01:50:49.656Z,1021.49
2022-12-01T01:51:49.655Z,1021.50
2022-12-01T01:52:49.596Z,1021.51
2022-12-01T01:53:49.621Z,1021.49
2022-12-01T01:54:49.635Z,1021.48
2022-12-01T01:55:49.544Z,1021.48
2022-12-01T01:56:49.702Z,1021.47
2022-12-01T01:57:49.585Z,1021.47
2022-12-01T01:58:49.564Z,1021.48
2022-12-01T01:59:49.773Z,1021.48
2022-12-01T02:00:49.566Z,1021.47
2022-12-01T02:01:49.559Z,1021.47
2022-12-01T02:02:49.656Z,1021.49
2022-12-01T02:03:49.702Z,1021.47
2022-12-01T02:04:51.257Z,1021.47
2022-12-01T02:05:49.477Z,1021.48
2022-12-01T02:06:49.506Z,1021.47
2022-12-01T02:07:49.501Z,1021.46
2022-12-01T02:08:49.581Z,1021.45
2022-12-01T02:09:49.843Z,1021.43
2022-12-01T02:10:49.650Z,1021.45
2022-12-01T02:11:49.387Z,1021.42
2022-12-01T02:12:49.478Z,1021.43
2022-12-01T02:13:49.377Z,1021.43
2022-12-01T02:14:49.429Z,1021.43
2022-12-01T02:15:49.554Z,1021.44
2022-12-01T02:16:49.382Z,1021.43
2022-12-01T02:17:49.390Z,1021.43
2022-12-01T02:18:49.410Z,1021.43
2022-12-01T02:19:49.579Z,1021.43
2022-12-01T02:20:49.329Z,1021.43
2022-12-01T02:21:49.353Z,1021.43
2022-12-01T02:22:53.608Z,1021.42
2022-12-01T02:23:49.259Z,1021.43
2022-12-01T02:24:49.333Z,1021.43
2022-12-01T02:25:49.309Z,1021.43
2022-12-01T02:26:49.256Z,1021.44
2022-12-01T02:27:49.285Z,1021.44
2022-12-01T02:28:49.218Z,1021.43
2022-12-01T02:29:49.628Z,1021.44
2022-12-01T02:30:49.485Z,1021.44
2022-12-01T02:31:49.182Z,1021.45
2022-12-01T02:32:49.269Z,1021.44
2022-12-01T02:33:49.235Z,1021.44
2022-12-01T02:34:49.213Z,1021.42
2022-12-01T02:35:49.198Z,1021.42
2022-12-01T02:36:49.157Z,1021.42
2022-12-01T02:37:49.195Z,1021.40
2022-12-01T02:38:49.117Z,1021.40
2022-12-01T02:39:49.372Z,1021.39
2022-12-01T02:40:49.112Z,1021.38
2022-12-01T02:41:49.152Z,1021.39
2022-12-01T02:42:49.146Z,1021.39
2022-12-01T02:43:49.426Z,1021.39
2022-12-01T02:44:49.079Z,1021.37
2022-12-01T02:45:49.228Z,1021.37
2022-12-01T02:46:49.025Z,1021.37
2022-12-01T02:47:49.078Z,1021.38
2022-12-01T02:48:49.048Z,1021.37
2022-12-01T02:49:49.467Z,1021.35
2022-12-01T02:50:49.046Z,1021.37
2022-12-01T02:51:49.055Z,1021.33
2022-12-01T02:52:49.035Z,1021.35
2022-12-01T02:53:48.986Z,1021.36
2022-12-01T02:54:49.027Z,1021.36
2022-12-01T02:55:49.019Z,1021.37
2022-12-01T02:56:49.120Z,1021.38
2022-12-01T02:57:48.941Z,1021.38
2022-12-01T02:58:49.024Z,1021.38
2022-12-01T02:59:49.187Z,1021.38
2022-12-01T03:00:48.925Z,1021.37
2022-12-01T03:01:48.956Z,1021.38
2022-12-01T03:02:49.143Z,1021.38
2022-12-01T03:03:48.866Z,1021.38
2022-12-01T03:04:48.946Z,1021.39
2022-12-01T03:05:48.929Z,1021.40
2022-12-01T03:06:48.853Z,1021.41
2022-12-01T03:07:48.964Z,1021.42
2022-12-01T03:08:48.863Z,1021.43
2022-12-01T03:09:49.256Z,1021.43
2022-12-01T03:10:48.807Z,1021.44
2022-12-01T03:11:48.814Z,1021.44
2022-12-01T03:12:48.923Z,1021.45
2022-12-01T03:13:48.961Z,1021.45
2022-12-01T03:14:48.819Z,1021.43
2022-12-01T03:15:48.881Z,1021.43
2022-12-01T03:16:48.736Z,1021.44
2022-12-01T03:17:49.031Z,1021.44
2022-12-01T03:18:48.821Z,1021.43
2022-12-01T03:19:48.932Z,1021.43
2022-12-01T03:20:48.805Z,1021.43
2022-12-01T03:21:48.694Z,1021.42
2022-12-01T03:22:48.809Z,1021.42
2022-12-01T03:23:48.707Z,1021.41
2022-12-01T03:24:48.691Z,1021.40
2022-12-01T03:25:48.816Z,1021.39
2022-12-01T03:26:48.768Z,1021.37
2022-12-01T03:28:19.178Z,1021.37
2022-12-01T03:28:48.776Z,1021.36
2022-12-01T03:29:48.833Z,1021.36
2022-12-01T03:30:48.679Z,1021.37
2022-12-01T03:31:48.994Z,1021.38
2022-12-01T03:32:48.744Z,1021.37
2022-12-01T03:33:48.584Z,1021.39
2022-12-01T03:34:48.692Z,1021.39
2022-12-01T03:35:48.723Z,1021.38
2022-12-01T03:36:48.611Z,1021.38
2022-12-01T03:37:48.595Z,1021.40
2022-12-01T03:38:48.720Z,1021.40
2022-12-01T03:39:48.788Z,1021.41
2022-12-01T03:40:48.487Z,1021.42
2022-12-01T03:41:48.648Z,1021.43
2022-12-01T03:42:48.616Z,1021.44
2022-12-01T03:43:48.655Z,1021.44
2022-12-01T03:44:48.485Z,1021.43
2022-12-01T03:45:48.740Z,1021.43
2022-12-01T03:46:48.477Z,1021.43
2022-12-01T03:47:48.449Z,1021.43
2022-12-01T03:48:48.404Z,1021.43
2022-12-01T03:49:48.902Z,1021.43
2022-12-01T03:50:48.446Z,1021.45
2022-12-01T03:51:48.510Z,1021.44
2022-12-01T03:52:48.416Z,1021.44
2022-12-01T03:53:48.452Z,1021.45
2022-12-01T03:54:48.498Z,1021.47
2022-12-01T03:55:48.361Z,1021.46
2022-12-01T03:56:48.392Z,1021.48
2022-12-01T03:57:48.441Z,1021.49
2022-12-01T03:58:48.432Z,1021.50
2022-12-01T03:59:48.777Z,1021.50
2022-12-01T04:00:48.340Z,1021.51
2022-12-01T04:01:48.403Z,1021.50
2022-12-01T04:02:48.408Z,1021.50
2022-12-01T04:03:48.411Z,1021.51
2022-12-01T04:04:48.508Z,1021.51
2022-12-01T04:05:48.331Z,1021.50
2022-12-01T04:06:48.311Z,1021.51
2022-12-01T04:07:48.310Z,1021.51
2022-12-01T04:08:48.274Z,1021.51
2022-12-01T04:09:48.592Z,1021.51
2022-12-01T04:10:48.230Z,1021.52
2022-12-01T04:11:48.324Z,1021.53
2022-12-01T04:12:48.326Z,1021.53
2022-12-01T04:13:48.394Z,1021.53
2022-12-01T04:14:48.177Z,1021.53
2022-12-01T04:15:48.286Z,1021.54
2022-12-01T04:16:48.267Z,1021.52
2022-12-01T04:17:48.301Z,1021.53
2022-12-01T04:18:48.256Z,1021.52
2022-12-01T04:19:48.477Z,1021.53
2022-12-01T04:20:48.161Z,1021.54
2022-12-01T04:21:48.133Z,1021.54
2022-12-01T04:22:48.252Z,1021.55
2022-12-01T04:23:48.116Z,1021.55
2022-12-01T04:24:48.043Z,1021.56
2022-12-01T04:25:48.161Z,1021.57
2022-12-01T04:26:48.188Z,1021.57
2022-12-01T04:27:48.188Z,1021.57
2022-12-01T04:28:48.005Z,1021.55
2022-12-01T04:29:48.395Z,1021.56
2022-12-01T04:30:48.113Z,1021.58
2022-12-01T04:31:48.217Z,1021.56
2022-12-01T04:32:48.078Z,1021.56
2022-12-01T04:33:48.105Z,1021.56
2022-12-01T04:34:48.272Z,1021.56
2022-12-01T04:35:47.980Z,1021.55
2022-12-01T04:36:48.071Z,1021.56
2022-12-01T04:37:48.118Z,1021.54
2022-12-01T04:38:47.960Z,1021.53
2022-12-01T04:39:48.278Z,1021.51
2022-12-01T04:40:47.914Z,1021.49
2022-12-01T04:41:47.927Z,1021.48
2022-12-01T04:42:47.998Z,1021.48
2022-12-01T04:43:47.875Z,1021.48
2022-12-01T04:44:47.936Z,1021.48
2022-12-01T04:45:48.152Z,1021.47
2022-12-01T04:46:48.045Z,1021.47
2022-12-01T04:47:47.919Z,1021.47
2022-12-01T04:48:47.998Z,1021.47
2022-12-01T04:49:48.174Z,1021.47
2022-12-01T04:50:47.839Z,1021.46
2022-12-01T04:51:47.855Z,1021.47
2022-12-01T04:52:47.943Z,1021.46
2022-12-01T04:53:47.954Z,1021.46
2022-12-01T04:54:47.987Z,1021.45
2022-12-01T04:55:47.915Z,1021.45
2022-12-01T04:56:47.818Z,1021.44
2022-12-01T04:57:47.757Z,1021.42
2022-12-01T04:58:47.755Z,1021.41
2022-12-01T04:59:48.308Z,1021.40
2022-12-01T05:00:47.775Z,1021.40
2022-12-01T05:01:47.791Z,1021.39
2022-12-01T05:02:47.680Z,1021.37
2022-12-01T05:03:47.675Z,1021.37
2022-12-01T05:04:47.747Z,1021.38
2022-12-01T05:05:47.688Z,1021.38
2022-12-01T05:06:47.684Z,1021.38
2022-12-01T05:07:47.740Z,1021.39
2022-12-01T05:08:47.588Z,1021.40
2022-12-01T05:09:48.045Z,1021.41
2022-12-01T05:10:47.681Z,1021.43
2022-12-01T05:11:47.633Z,1021.44
2022-12-01T05:12:47.564Z,1021.45
2022-12-01T05:13:47.629Z,1021.44
2022-12-01T05:14:47.570Z,1021.46
2022-12-01T05:15:47.694Z,1021.45
2022-12-01T05:16:48.003Z,1021.45
2022-12-01T05:17:47.712Z,1021.45
2022-12-01T05:18:47.641Z,1021.45
2022-12-01T05:19:47.949Z,1021.45
2022-12-01T05:20:47.680Z,1021.45
2022-12-01T05:21:47.661Z,1021.45
2022-12-01T05:23:04.863Z,1021.44
2022-12-01T05:23:47.545Z,1021.44
2022-12-01T05:24:47.646Z,1021.44
2022-12-01T05:25:47.861Z,1021.44
2022-12-01T05:26:47.727Z,1021.44
2022-12-01T05:27:47.727Z,1021.47
2022-12-01T05:28:47.553Z,1021.47
2022-12-01T05:29:47.901Z,1021.46
2022-12-01T05:30:47.459Z,1021.46
2022-12-01T05:31:47.708Z,1021.47
2022-12-01T05:32:47.406Z,1021.48
2022-12-01T05:33:47.623Z,1021.48
2022-12-01T05:34:47.395Z,1021.48
2022-12-01T05:35:47.436Z,1021.47
2022-12-01T05:36:47.531Z,1021.49
2022-12-01T05:37:47.369Z,1021.48
2022-12-01T05:38:47.549Z,1021.50
2022-12-01T05:39:47.870Z,1021.52
2022-12-01T05:40:47.333Z,1021.53
2022-12-01T05:41:47.326Z,1021.53
2022-12-01T05:42:47.415Z,1021.55
2022-12-01T05:43:47.384Z,1021.54
2022-12-01T05:44:47.327Z,1021.53
2022-12-01T05:45:47.375Z,1021.53
2022-12-01T05:46:47.270Z,1021.53
2022-12-01T05:47:47.364Z,1021.51
2022-12-01T05:48:47.277Z,1021.53
2022-12-01T05:49:47.526Z,1021.53
2022-12-01T05:50:47.247Z,1021.55
2022-12-01T05:51:47.213Z,1021.55
2022-12-01T05:52:47.287Z,1021.55
2022-12-01T05:53:47.197Z,1021.57
2022-12-01T05:54:47.226Z,1021.57
2022-12-01T05:55:47.195Z,1021.58
2022-12-01T05:56:47.186Z,1021.58
2022-12-01T05:57:47.132Z,1021.57
2022-12-01T05:58:47.199Z,1021.60
2022-12-01T05:59:47.630Z,1021.60
2022-12-01T06:00:47.081Z,1021.62
2022-12-01T06:01:47.456Z,1021.63
2022-12-01T06:02:47.150Z,1021.63
2022-12-01T06:03:47.091Z,1021.64
2022-12-01T06:04:47.160Z,1021.65
2022-12-01T06:05:47.108Z,1021.64
2022-12-01T06:06:47.067Z,1021.66
2022-12-01T06:07:47.239Z,1021.65
2022-12-01T06:08:47.052Z,1021.65
2022-12-01T06:09:47.298Z,1021.64
2022-12-01T06:10:47.043Z,1021.64
2022-12-01T06:11:51.195Z,1021.62
2022-12-01T06:12:46.984Z,1021.64
2022-12-01T06:13:47.021Z,1021.64
2022-12-01T06:14:46.988Z,1021.66
2022-12-01T06:15:47.056Z,1021.65
2022-12-01T06:16:46.948Z,1021.65
2022-12-01T06:17:47.081Z,1021.66
2022-12-01T06:18:46.932Z,1021.66
2022-12-01T06:19:47.192Z,1021.66
2022-12-01T06:20:46.970Z,1021.67
2022-12-01T06:21:46.996Z,1021.65
2022-12-01T06:22:47.009Z,1021.66
2022-12-01T06:23:46.953Z,1021.66
2022-12-01T06:24:46.853Z,1021.67
2022-12-01T06:25:46.900Z,1021.67
2022-12-01T06:26:46.868Z,1021.64
2022-12-01T06:27:46.895Z,1021.67
2022-12-01T06:28:46.901Z,1021.69
2022-12-01T06:29:46.986Z,1021.70
2022-12-01T06:30:46.842Z,1021.71
2022-12-01T06:31:46.892Z,1021.71
2022-12-01T06:32:46.908Z,1021.74
2022-12-01T06:33:46.848Z,1021.74
2022-12-01T06:34:46.753Z,1021.75
2022-12-01T06:35:46.779Z,1021.77
2022-12-01T06:36:46.866Z,1021.77
2022-12-01T06:37:46.834Z,1021.78
2022-12-01T06:38:46.880Z,1021.78
2022-12-01T06:39:47.063Z,1021.77
2022-12-01T06:40:46.819Z,1021.75
2022-12-01T06:41:46.848Z,1021.74
2022-12-01T06:42:46.957Z,1021.74
2022-12-01T06:43:46.803Z,1021.73
2022-12-01T06:44:46.738Z,1021.74
2022-12-01T06:45:46.934Z,1021.75
2022-12-01T06:46:46.789Z,1021.75
2022-12-01T06:47:46.957Z,1021.76
2022-12-01T06:48:46.885Z,1021.77
2022-12-01T06:49:47.152Z,1021.78
2022-12-01T06:50:46.915Z,1021.80
2022-12-01T06:51:46.832Z,1021.80
2022-12-01T06:52:47.106Z,1021.80
2022-12-01T06:53:46.809Z,1021.80
2022-12-01T06:54:46.795Z,1021.79
2022-12-01T06:55:47.326Z,1021.79
2022-12-01T06:56:47.133Z,1021.79
2022-12-01T06:57:46.921Z,1021.79
2022-12-01T06:58:47.043Z,1021.80
2022-12-01T06:59:47.017Z,1021.81
2022-12-01T07:00:51.907Z,1021.83
2022-12-01T07:01:46.841Z,1021.84
2022-12-01T07:02:46.700Z,1021.84
2022-12-01T07:03:46.678Z,1021.84
2022-12-01T07:04:46.585Z,1021.84
2022-12-01T07:05:46.452Z,1021.84
2022-12-01T07:06:46.722Z,1021.86
2022-12-01T07:07:47.009Z,1021.87
2022-12-01T07:08:46.671Z,1021.88
2022-12-01T07:09:46.722Z,1021.90
2022-12-01T07:10:46.694Z,1021.90
2022-12-01T07:11:46.580Z,1021.91
2022-12-01T07:12:46.437Z,1021.91
2022-12-01T07:13:46.574Z,1021.93
2022-12-01T07:14:46.706Z,1021.93
2022-12-01T07:15:47.084Z,1021.95
2022-12-01T07:16:46.399Z,1021.95
2022-12-01T07:17:46.417Z,1021.99
2022-12-01T07:18:46.699Z,1021.96
2022-12-01T07:19:46.502Z,1021.95
2022-12-01T07:20:46.951Z,1021.96
2022-12-01T07:21:46.590Z,1021.97
2022-12-01T07:22:46.497Z,1021.98
2022-12-01T07:23:46.881Z,1021.97
2022-12-01T07:24:46.938Z,1021.99
2022-12-01T07:25:46.741Z,1021.98
2022-12-01T07:26:47.005Z,1021.98
2022-12-01T07:27:48.120Z,1021.98
2022-12-01T07:28:47.310Z,1021.98
2022-12-01T07:29:46.868Z,1021.98
2022-12-01T07:30:46.732Z,1021.96
2022-12-01T07:31:46.839Z,1021.95
2022-12-01T07:32:46.505Z,1021.95
2022-12-01T07:33:46.441Z,1021.94
2022-12-01T07:34:53.260Z,1021.94
2022-12-01T07:37:05.838Z,1021.93
2022-12-01T07:38:06.856Z,1021.94
2022-12-01T07:39:06.815Z,1021.93
2022-12-01T07:40:06.793Z,1021.94
2022-12-01T07:41:06.753Z,1021.94
2022-12-01T07:42:06.744Z,1021.95
2022-12-01T07:43:06.732Z,1021.96
2022-12-01T07:44:06.743Z,1021.97
2022-12-01T07:45:06.738Z,1021.99
2022-12-01T07:46:06.808Z,1022.00
2022-12-01T07:47:06.764Z,1022.01
2022-12-01T07:48:06.738Z,1022.02
2022-12-01T07:49:06.749Z,1022.02
2022-12-01T07:50:06.664Z,1022.03
2022-12-01T07:51:06.672Z,1022.03
2022-12-01T07:52:06.701Z,1022.05
2022-12-01T07:53:06.759Z,1022.05
2022-12-01T07:54:06.643Z,1022.07
2022-12-01T07:55:06.667Z,1022.08
2022-12-01T07:56:08.757Z,1022.10
2022-12-01T07:57:06.730Z,1022.10
2022-12-01T07:58:07.325Z,1022.11
2022-12-01T07:59:08.514Z,1022.12
2022-12-01T08:00:06.590Z,1022.11
2022-12-01T08:01:06.689Z,1022.13
2022-12-01T08:02:06.716Z,1022.15
2022-12-01T08:03:06.632Z,1022.17
2022-12-01T08:04:06.654Z,1022.16
2022-12-01T08:05:06.648Z,1022.16
2022-12-01T08:06:06.585Z,1022.16
2022-12-01T08:07:06.577Z,1022.16
2022-12-01T08:08:06.578Z,1022.15
2022-12-01T08:09:06.578Z,1022.15
2022-12-01T08:10:06.654Z,1022.15
2022-12-01T08:11:06.501Z,1022.15
2022-12-01T08:12:06.530Z,1022.14
2022-12-01T08:13:06.690Z,1022.13
2022-12-01T08:14:06.585Z,1022.14
2022-12-01T08:15:06.522Z,1022.15
2022-12-01T08:16:06.624Z,1022.14
2022-12-01T08:17:06.630Z,1022.13
2022-12-01T08:18:06.464Z,1022.15
2022-12-01T08:19:06.459Z,1022.16
2022-12-01T08:20:06.559Z,1022.17
2022-12-01T08:21:06.382Z,1022.18
2022-12-01T08:22:06.561Z,1022.19
2022-12-01T08:23:06.540Z,1022.21
2022-12-01T08:24:06.536Z,1022.24
2022-12-01T08:25:06.406Z,1022.26
2022-12-01T08:26:06.580Z,1022.27
2022-12-01T08:27:06.341Z,1022.28
2022-12-01T08:28:06.482Z,1022.31
2022-12-01T08:29:06.379Z,1022.33
2022-12-01T08:30:06.471Z,1022.32
2022-12-01T08:31:06.367Z,1022.36
2022-12-01T08:32:06.481Z,1022.34
2022-12-01T08:33:06.324Z,1022.35
2022-12-01T08:34:06.306Z,1022.35
2022-12-01T08:35:06.203Z,1022.37
2022-12-01T08:36:06.257Z,1022.38
2022-12-01T08:37:06.223Z,1022.37
2022-12-01T08:38:06.239Z,1022.36
2022-12-01T08:39:06.316Z,1022.38
2022-12-01T08:40:06.224Z,1022.39
2022-12-01T08:41:06.216Z,1022.38
2022-12-01T08:42:06.556Z,1022.41
2022-12-01T08:43:06.198Z,1022.41
2022-12-01T08:44:06.139Z,1022.39
2022-12-01T08:45:06.149Z,1022.41
2022-12-01T08:46:06.159Z,1022.41
2022-12-01T08:47:06.122Z,1022.40
2022-12-01T08:48:06.133Z,1022.40
2022-12-01T08:49:06.126Z,1022.40
2022-12-01T08:50:06.057Z,1022.39
2022-12-01T08:51:06.065Z,1022.39
2022-12-01T08:52:06.123Z,1022.39
2022-12-01T08:53:06.082Z,1022.39
2022-12-01T08:54:06.052Z,1022.40
2022-12-01T08:55:06.014Z,1022.41
2022-12-01T08:56:06.101Z,1022.42
2022-12-01T08:57:05.992Z,1022.42
2022-12-01T08:58:05.986Z,1022.43
2022-12-01T08:59:05.962Z,1022.41
2022-12-01T09:00:06.003Z,1022.41
2022-12-01T09:01:05.968Z,1022.41
2022-12-01T09:02:07.230Z,1022.42
2022-12-01T09:03:05.976Z,1022.41
2022-12-01T09:04:06.601Z,1022.42
2022-12-01T09:05:05.886Z,1022.42
2022-12-01T09:06:05.935Z,1022.43
2022-12-01T09:07:05.986Z,1022.45
2022-12-01T09:08:06.073Z,1022.46
2022-12-01T09:09:05.909Z,1022.45
2022-12-01T09:10:06.118Z,1022.46
2022-12-01T09:11:05.879Z,1022.45
2022-12-01T09:12:05.821Z,1022.46
2022-12-01T09:13:05.813Z,1022.48
2022-12-01T09:14:05.850Z,1022.47
2022-12-01T09:15:06.090Z,1022.47
2022-12-01T09:16:05.850Z,1022.47
2022-12-01T09:17:05.786Z,1022.48
2022-12-01T09:18:05.910Z,1022.47
2022-12-01T09:19:05.826Z,1022.45
2022-12-01T09:20:05.811Z,1022.45
2022-12-01T09:21:05.763Z,1022.44
2022-12-01T09:22:05.725Z,1022.45
2022-12-01T09:23:05.718Z,1022.45
2022-12-01T09:24:05.737Z,1022.46
2022-12-01T09:25:05.768Z,1022.47
2022-12-01T09:26:07.819Z,1022.48
2022-12-01T09:27:06.661Z,1022.48
2022-12-01T09:28:05.679Z,1022.48
2022-12-01T09:29:05.667Z,1022.48
2022-12-01T09:30:05.778Z,1022.47
2022-12-01T09:31:05.729Z,1022.50
2022-12-01T09:32:05.671Z,1022.51
2022-12-01T09:33:05.608Z,1022.51
2022-12-01T09:34:05.595Z,1022.51
2022-12-01T09:35:05.620Z,1022.52
2022-12-01T09:36:05.598Z,1022.55
2022-12-01T09:37:05.623Z,1022.54
2022-12-01T09:38:05.578Z,1022.54
2022-12-01T09:39:05.555Z,1022.55
2022-12-01T09:40:05.623Z,1022.56
2022-12-01T09:41:05.719Z,1022.56
2022-12-01T09:42:09.187Z,1022.56
2022-12-01T09:43:05.520Z,1022.55
2022-12-01T09:44:05.545Z,1022.53
2022-12-01T09:45:05.533Z,1022.55
2022-12-01T09:46:05.492Z,1022.55
2022-12-01T09:47:05.625Z,1022.58
2022-12-01T09:48:05.495Z,1022.56
2022-12-01T09:49:05.475Z,1022.59
2022-12-01T09:50:05.493Z,1022.56
2022-12-01T09:51:05.455Z,1022.56
2022-12-01T09:52:05.415Z,1022.56
2022-12-01T09:53:05.407Z,1022.59
2022-12-01T09:54:05.467Z,1022.58
2022-12-01T09:55:05.420Z,1022.60
2022-12-01T09:56:11.502Z,1022.59
2022-12-01T09:57:05.431Z,1022.59
2022-12-01T09:58:05.441Z,1022.56
2022-12-01T09:59:05.334Z,1022.55
2022-12-01T10:00:05.371Z,1022.54
2022-12-01T10:01:05.439Z,1022.54
2022-12-01T10:02:05.357Z,1022.52
2022-12-01T10:03:05.316Z,1022.51
2022-12-01T10:04:05.350Z,1022.49
2022-12-01T10:05:05.317Z,1022.48
2022-12-01T10:07:05.297Z,1022.45
2022-12-01T10:08:05.476Z,1022.44
2022-12-01T10:09:05.271Z,1022.44
2022-12-01T10:10:05.280Z,1022.45
2022-12-01T10:11:05.314Z,1022.42
2022-12-01T10:12:05.242Z,1022.40
2022-12-01T10:13:05.211Z,1022.40
2022-12-01T10:14:05.313Z,1022.42
2022-12-01T10:15:05.237Z,1022.42
2022-12-01T10:16:05.229Z,1022.42
2022-12-01T10:17:05.192Z,1022.41
2022-12-01T10:18:05.254Z,1022.42
2022-12-01T10:19:05.178Z,1022.42
2022-12-01T10:20:05.173Z,1022.42
2022-12-01T10:21:05.156Z,1022.42
2022-12-01T10:22:05.148Z,1022.41
2022-12-01T10:23:05.167Z,1022.41
2022-12-01T10:24:05.125Z,1022.41
2022-12-01T10:25:05.119Z,1022.41
2022-12-01T10:26:05.120Z,1022.39
2022-12-01T10:27:05.047Z,1022.39
2022-12-01T10:28:05.085Z,1022.37
2022-12-01T10:29:05.081Z,1022.38
2022-12-01T10:30:05.093Z,1022.35
2022-12-01T10:31:05.108Z,1022.33
2022-12-01T10:32:05.028Z,1022.32
2022-12-01T10:33:05.019Z,1022.32
2022-12-01T10:34:05.015Z,1022.31
2022-12-01T10:35:05.052Z,1022.29
2022-12-01T10:36:05.003Z,1022.27
2022-12-01T10:37:05.058Z,1022.25
2022-12-01T10:38:05.016Z,1022.26
2022-12-01T10:39:04.971Z,1022.27
2022-12-01T10:40:04.945Z,1022.25
2022-12-01T10:41:04.969Z,1022.24
2022-12-01T10:42:04.924Z,1022.25
2022-12-01T10:43:04.952Z,1022.25
2022-12-01T10:44:04.937Z,1022.26
2022-12-01T10:45:04.880Z,1022.25
2022-12-01T10:46:04.977Z,1022.25
2022-12-01T10:47:04.864Z,1022.26
2022-12-01T10:48:04.869Z,1022.24
2022-12-01T10:49:04.840Z,1022.23
2022-12-01T10:50:04.861Z,1022.22
2022-12-01T10:51:05.172Z,1022.22
2022-12-01T10:52:04.814Z,1022.23
2022-12-01T10:53:04.810Z,1022.24
2022-12-01T10:54:04.888Z,1022.25
2022-12-01T10:55:04.808Z,1022.26
2022-12-01T10:56:04.789Z,1022.27
2022-12-01T10:57:04.798Z,1022.27
2022-12-01T10:58:09.219Z,1022.27
2022-12-01T10:59:04.743Z,1022.26
2022-12-01T11:00:04.790Z,1022.26
2022-12-01T11:01:04.784Z,1022.28
2022-12-01T11:02:04.903Z,1022.26
2022-12-01T11:03:04.883Z,1022.25
2022-12-01T11:04:04.782Z,1022.25
2022-12-01T11:05:04.733Z,1022.23
2022-12-01T11:06:04.697Z,1022.23
2022-12-01T11:07:04.704Z,1022.22
2022-12-01T11:08:04.678Z,1022.21
2022-12-01T11:09:04.655Z,1022.23
2022-12-01T11:10:04.688Z,1022.22
2022-12-01T11:11:04.647Z,1022.23
2022-12-01T11:12:04.725Z,1022.22
2022-12-01T11:13:04.642Z,1022.22
2022-12-01T11:14:04.619Z,1022.21
2022-12-01T11:15:04.591Z,1022.21
2022-12-01T11:16:04.658Z,1022.20
2022-12-01T11:17:04.675Z,1022.20
2022-12-01T11:18:04.583Z,1022.20
2022-12-01T11:19:04.613Z,1022.21
2022-12-01T11:20:04.829Z,1022.21
2022-12-01T11:21:04.533Z,1022.21
2022-12-01T11:22:04.507Z,1022.22
2022-12-01T11:23:04.551Z,1022.21
2022-12-01T11:24:04.542Z,1022.22
2022-12-01T11:25:04.496Z,1022.23
2022-12-01T11:26:04.602Z,1022.21
2022-12-01T11:27:04.459Z,1022.19
2022-12-01T11:28:04.478Z,1022.17
2022-12-01T11:29:04.500Z,1022.15
2022-12-01T11:30:04.460Z,1022.14
2022-12-01T11:31:04.408Z,1022.14
2022-12-01T11:32:04.465Z,1022.15
2022-12-01T11:33:04.422Z,1022.15
2022-12-01T11:34:04.396Z,1022.14
2022-12-01T11:35:04.382Z,1022.16
2022-12-01T11:36:04.401Z,1022.16
2022-12-01T11:37:04.410Z,1022.16
2022-12-01T11:39:04.417Z,1022.15
2022-12-01T11:40:04.352Z,1022.14
2022-12-01T11:41:04.325Z,1022.14
2022-12-01T11:42:04.344Z,1022.13
2022-12-01T11:43:04.308Z,1022.14
2022-12-01T11:44:12.794Z,1022.13
2022-12-01T11:45:04.314Z,1022.12
2022-12-01T11:46:04.469Z,1022.13
2022-12-01T11:47:22.211Z,1022.13
2022-12-01T11:48:04.261Z,1022.12
2022-12-01T11:49:04.234Z,1022.11
2022-12-01T11:50:04.240Z,1022.12
2022-12-01T11:51:04.225Z,1022.13
2022-12-01T11:52:04.214Z,1022.12
2022-12-01T11:53:04.205Z,1022.11
2022-12-01T11:54:04.188Z,1022.10
2022-12-01T11:55:09.796Z,1022.10
2022-12-01T11:56:04.164Z,1022.10
2022-12-01T11:57:32.291Z,1022.09
2022-12-01T11:58:04.154Z,1022.08
2022-12-01T11:59:04.221Z,1022.07
2022-12-01T12:00:04.177Z,1022.07
2022-12-01T12:01:04.131Z,1022.06
2022-12-01T12:02:04.186Z,1022.06
2022-12-01T12:03:04.195Z,1022.05
2022-12-01T12:04:04.101Z,1022.04
2022-12-01T12:05:04.269Z,1022.03
2022-12-01T12:06:18.137Z,1022.02
2022-12-01T12:07:04.061Z,1022.01
2022-12-01T12:08:04.062Z,1022.00
2022-12-01T12:09:04.236Z,1021.99